CheckWX is a tool to help pilots better visualize weather data.  It is not intended as a substitute for an official pre-flight weather briefing.

08:44:48 UTC

KBVO METAR
Bartlesville Municipal Airport
Bartlesville, Oklahoma, USA
Current

52 mins ago

KBVO 180753Z AUTO 00000KT 10SM CLR 10/08 A2989 RMK AO2 SLP114 T01000078 $
Observed
Oct-18 @ 07:53 UTC
Visibility
10 SM
Flight Rules
VFR
Cloud Levels
  • Clear skies
Temperature
10°C / 50°F
Dewpoint
C / 46°F
Humidity
88%
Altimeter
29.89" Hg
Pressure
1012.22 hPa
Previous

2 hours ago

KBVO 180653Z AUTO 19003KT 10SM CLR 10/08 A2989 RMK AO2 SLP113 T01000078 $
Observed
Oct-18 @ 06:53 UTC
Wind
  • 190° at 3 KTS
Visibility
10 SM
Flight Rules
VFR
Cloud Levels
  • Clear skies
Temperature
10°C / 50°F
Dewpoint
C / 46°F
Humidity
88%
Altimeter
29.89" Hg
Pressure
1012.22 hPa
Previous

3 hours ago

KBVO 180553Z AUTO 00000KT 9SM CLR 08/07 A2988 RMK AO2 SLP113 T00830067 10172 20078 402220022 58003 $
Observed
Oct-18 @ 05:53 UTC
Visibility
9 SM
Flight Rules
VFR
Cloud Levels
  • Clear skies
Temperature
C / 46°F
Dewpoint
C / 45°F
Humidity
93%
Altimeter
29.88" Hg
Pressure
1011.82 hPa